sensor_id;sensor_type;location;lat;lon;timestamp;P1;durP1;ratioP1;P2;durP2;ratioP2
49412;SDS011;35493;50.276;9.372;2023-04-03T00:00:38;4.47;;;1.98;;
49412;SDS011;35493;50.276;9.372;2023-04-03T00:03:04;3.25;;;1.77;;
49412;SDS011;35493;50.276;9.372;2023-04-03T00:05:32;4.38;;;2.13;;
49412;SDS011;35493;50.276;9.372;2023-04-03T00:07:59;4.28;;;2.28;;
49412;SDS011;35493;50.276;9.372;2023-04-03T00:10:27;3.47;;;1.88;;
49412;SDS011;35493;50.276;9.372;2023-04-03T00:12:55;2.88;;;1.70;;
49412;SDS011;35493;50.276;9.372;2023-04-03T00:15:22;5.43;;;2.13;;
49412;SDS011;35493;50.276;9.372;2023-04-03T00:17:49;4.88;;;1.90;;
49412;SDS011;35493;50.276;9.372;2023-04-03T00:20:16;4.28;;;2.00;;
49412;SDS011;35493;50.276;9.372;2023-04-03T00:22:44;3.88;;;2.08;;
49412;SDS011;35493;50.276;9.372;2023-04-03T00:25:11;3.83;;;1.80;;
49412;SDS011;35493;50.276;9.372;2023-04-03T00:27:38;5.28;;;2.50;;
49412;SDS011;35493;50.276;9.372;2023-04-03T00:30:08;3.63;;;1.77;;
49412;SDS011;35493;50.276;9.372;2023-04-03T00:32:37;4.97;;;1.95;;
49412;SDS011;35493;50.276;9.372;2023-04-03T00:35:05;3.83;;;2.00;;
49412;SDS011;35493;50.276;9.372;2023-04-03T00:37:32;4.35;;;1.77;;
49412;SDS011;35493;50.276;9.372;2023-04-03T00:40:00;6.95;;;2.05;;
49412;SDS011;35493;50.276;9.372;2023-04-03T00:42:27;5.75;;;2.42;;
49412;SDS011;35493;50.276;9.372;2023-04-03T00:48:02;4.72;;;2.17;;
49412;SDS011;35493;50.276;9.372;2023-04-03T00:50:32;5.03;;;1.92;;
49412;SDS011;35493;50.276;9.372;2023-04-03T00:53:01;4.97;;;2.05;;
49412;SDS011;35493;50.276;9.372;2023-04-03T00:55:29;4.93;;;2.10;;
49412;SDS011;35493;50.276;9.372;2023-04-03T00:57:57;4.20;;;1.90;;
49412;SDS011;35493;50.276;9.372;2023-04-03T01:00:25;6.22;;;2.33;;
49412;SDS011;35493;50.276;9.372;2023-04-03T01:02:54;4.55;;;2.00;;
49412;SDS011;35493;50.276;9.372;2023-04-03T01:05:21;4.20;;;1.92;;
49412;SDS011;35493;50.276;9.372;2023-04-03T01:07:48;4.80;;;2.03;;
49412;SDS011;35493;50.276;9.372;2023-04-03T01:10:17;5.88;;;1.92;;
49412;SDS011;35493;50.276;9.372;2023-04-03T01:12:47;3.78;;;2.03;;
49412;SDS011;35493;50.276;9.372;2023-04-03T01:15:16;4.88;;;2.22;;
49412;SDS011;35493;50.276;9.372;2023-04-03T01:17:46;5.43;;;2.53;;
49412;SDS011;35493;50.276;9.372;2023-04-03T01:23:14;3.28;;;1.98;;
49412;SDS011;35493;50.276;9.372;2023-04-03T01:25:54;3.75;;;2.00;;
49412;SDS011;35493;50.276;9.372;2023-04-03T01:28:23;4.65;;;2.50;;
49412;SDS011;35493;50.276;9.372;2023-04-03T01:30:53;6.40;;;2.17;;
49412;SDS011;35493;50.276;9.372;2023-04-03T01:33:51;3.92;;;1.70;;
49412;SDS011;35493;50.276;9.372;2023-04-03T01:36:19;4.82;;;1.73;;
49412;SDS011;35493;50.276;9.372;2023-04-03T01:38:48;4.53;;;1.90;;
49412;SDS011;35493;50.276;9.372;2023-04-03T01:41:15;4.28;;;1.90;;
49412;SDS011;35493;50.276;9.372;2023-04-03T01:43:42;3.95;;;2.03;;
49412;SDS011;35493;50.276;9.372;2023-04-03T01:46:09;4.30;;;2.17;;
49412;SDS011;35493;50.276;9.372;2023-04-03T01:48:37;4.45;;;2.05;;
49412;SDS011;35493;50.276;9.372;2023-04-03T01:51:05;5.20;;;2.08;;
49412;SDS011;35493;50.276;9.372;2023-04-03T01:53:32;4.28;;;1.90;;
49412;SDS011;35493;50.276;9.372;2023-04-03T01:55:59;5.55;;;2.20;;
49412;SDS011;35493;50.276;9.372;2023-04-03T01:58:27;4.03;;;1.60;;
49412;SDS011;35493;50.276;9.372;2023-04-03T02:00:54;3.63;;;1.40;;
49412;SDS011;35493;50.276;9.372;2023-04-03T02:03:21;4.18;;;1.48;;
49412;SDS011;35493;50.276;9.372;2023-04-03T02:05:49;5.13;;;1.70;;
49412;SDS011;35493;50.276;9.372;2023-04-03T02:08:17;2.80;;;1.35;;
49412;SDS011;35493;50.276;9.372;2023-04-03T02:10:46;5.75;;;1.50;;
49412;SDS011;35493;50.276;9.372;2023-04-03T02:13:14;4.40;;;1.25;;
49412;SDS011;35493;50.276;9.372;2023-04-03T02:15:41;2.33;;;1.08;;
49412;SDS011;35493;50.276;9.372;2023-04-03T02:18:08;3.35;;;1.05;;
49412;SDS011;35493;50.276;9.372;2023-04-03T02:20:35;3.17;;;0.93;;
49412;SDS011;35493;50.276;9.372;2023-04-03T02:23:04;4.80;;;1.23;;
49412;SDS011;35493;50.276;9.372;2023-04-03T02:25:33;3.67;;;1.05;;
49412;SDS011;35493;50.276;9.372;2023-04-03T02:28:00;5.25;;;1.33;;
49412;SDS011;35493;50.276;9.372;2023-04-03T02:30:27;6.50;;;1.00;;
49412;SDS011;35493;50.276;9.372;2023-04-03T02:32:53;6.15;;;1.00;;
49412;SDS011;35493;50.276;9.372;2023-04-03T02:35:21;4.32;;;1.08;;
49412;SDS011;35493;50.276;9.372;2023-04-03T02:37:48;4.60;;;1.30;;
49412;SDS011;35493;50.276;9.372;2023-04-03T02:40:16;4.38;;;1.40;;
49412;SDS011;35493;50.276;9.372;2023-04-03T02:42:44;4.55;;;1.30;;
49412;SDS011;35493;50.276;9.372;2023-04-03T02:45:11;4.40;;;1.00;;
49412;SDS011;35493;50.276;9.372;2023-04-03T02:47:38;4.25;;;1.02;;
49412;SDS011;35493;50.276;9.372;2023-04-03T02:50:05;3.83;;;1.48;;
49412;SDS011;35493;50.276;9.372;2023-04-03T02:52:32;5.35;;;1.10;;
49412;SDS011;35493;50.276;9.372;2023-04-03T02:55:00;5.72;;;1.02;;
49412;SDS011;35493;50.276;9.372;2023-04-03T02:57:28;3.78;;;1.08;;
49412;SDS011;35493;50.276;9.372;2023-04-03T02:59:57;3.40;;;1.15;;
49412;SDS011;35493;50.276;9.372;2023-04-03T03:02:24;3.38;;;1.00;;
49412;SDS011;35493;50.276;9.372;2023-04-03T03:04:51;6.20;;;1.73;;
49412;SDS011;35493;50.276;9.372;2023-04-03T03:07:18;6.00;;;1.55;;
49412;SDS011;35493;50.276;9.372;2023-04-03T03:09:44;3.15;;;1.17;;
49412;SDS011;35493;50.276;9.372;2023-04-03T03:12:11;3.63;;;1.13;;
49412;SDS011;35493;50.276;9.372;2023-04-03T03:14:38;5.80;;;1.30;;
49412;SDS011;35493;50.276;9.372;2023-04-03T03:17:07;2.95;;;1.10;;
49412;SDS011;35493;50.276;9.372;2023-04-03T03:19:34;6.43;;;1.50;;
49412;SDS011;35493;50.276;9.372;2023-04-03T03:22:01;4.45;;;1.58;;
49412;SDS011;35493;50.276;9.372;2023-04-03T03:24:28;6.60;;;1.40;;
49412;SDS011;35493;50.276;9.372;2023-04-03T03:26:55;4.00;;;1.20;;
49412;SDS011;35493;50.276;9.372;2023-04-03T03:29:22;4.32;;;1.20;;
49412;SDS011;35493;50.276;9.372;2023-04-03T03:31:49;4.68;;;1.23;;
49412;SDS011;35493;50.276;9.372;2023-04-03T03:34:17;6.00;;;1.40;;
49412;SDS011;35493;50.276;9.372;2023-04-03T03:36:44;4.57;;;1.20;;
49412;SDS011;35493;50.276;9.372;2023-04-03T03:39:12;3.53;;;1.10;;
49412;SDS011;35493;50.276;9.372;2023-04-03T03:41:39;6.35;;;1.38;;
49412;SDS011;35493;50.276;9.372;2023-04-03T03:44:06;3.70;;;1.35;;
49412;SDS011;35493;50.276;9.372;2023-04-03T03:46:33;5.25;;;1.38;;
49412;SDS011;35493;50.276;9.372;2023-04-03T03:49:00;1.42;;;0.73;;
49412;SDS011;35493;50.276;9.372;2023-04-03T03:51:29;5.43;;;1.20;;
49412;SDS011;35493;50.276;9.372;2023-04-03T03:53:57;4.80;;;1.20;;
49412;SDS011;35493;50.276;9.372;2023-04-03T03:56:24;5.47;;;1.20;;
49412;SDS011;35493;50.276;9.372;2023-04-03T03:58:52;4.53;;;1.33;;
49412;SDS011;35493;50.276;9.372;2023-04-03T04:01:21;6.45;;;1.33;;
49412;SDS011;35493;50.276;9.372;2023-04-03T04:03:48;6.43;;;1.30;;
49412;SDS011;35493;50.276;9.372;2023-04-03T04:06:19;2.92;;;1.10;;
49412;SDS011;35493;50.276;9.372;2023-04-03T04:08:48;6.25;;;1.60;;
49412;SDS011;35493;50.276;9.372;2023-04-03T04:11:15;4.25;;;1.27;;
49412;SDS011;35493;50.276;9.372;2023-04-03T04:13:44;3.95;;;1.15;;
49412;SDS011;35493;50.276;9.372;2023-04-03T04:16:12;3.40;;;1.30;;
49412;SDS011;35493;50.276;9.372;2023-04-03T04:18:39;5.82;;;1.45;;
49412;SDS011;35493;50.276;9.372;2023-04-03T04:21:06;4.78;;;1.50;;
49412;SDS011;35493;50.276;9.372;2023-04-03T04:23:33;5.57;;;1.40;;
49412;SDS011;35493;50.276;9.372;2023-04-03T04:26:02;3.90;;;1.30;;
49412;SDS011;35493;50.276;9.372;2023-04-03T04:28:33;5.05;;;1.02;;
49412;SDS011;35493;50.276;9.372;2023-04-03T04:31:02;3.63;;;1.20;;
49412;SDS011;35493;50.276;9.372;2023-04-03T04:33:30;6.28;;;1.30;;
49412;SDS011;35493;50.276;9.372;2023-04-03T04:35:59;5.88;;;1.77;;
49412;SDS011;35493;50.276;9.372;2023-04-03T04:38:26;3.25;;;1.15;;
49412;SDS011;35493;50.276;9.372;2023-04-03T04:40:53;6.15;;;1.48;;
49412;SDS011;35493;50.276;9.372;2023-04-03T04:43:22;7.20;;;1.60;;
49412;SDS011;35493;50.276;9.372;2023-04-03T04:45:59;4.65;;;1.75;;
49412;SDS011;35493;50.276;9.372;2023-04-03T04:48:28;5.32;;;1.58;;
49412;SDS011;35493;50.276;9.372;2023-04-03T04:50:55;6.45;;;2.00;;
49412;SDS011;35493;50.276;9.372;2023-04-03T04:53:22;4.97;;;1.48;;
49412;SDS011;35493;50.276;9.372;2023-04-03T04:55:49;6.40;;;1.48;;
49412;SDS011;35493;50.276;9.372;2023-04-03T04:58:16;5.70;;;1.30;;
49412;SDS011;35493;50.276;9.372;2023-04-03T05:00:45;3.55;;;1.40;;
49412;SDS011;35493;50.276;9.372;2023-04-03T05:03:12;7.60;;;1.70;;
49412;SDS011;35493;50.276;9.372;2023-04-03T05:05:39;6.20;;;1.90;;
49412;SDS011;35493;50.276;9.372;2023-04-03T05:08:06;7.05;;;1.83;;
49412;SDS011;35493;50.276;9.372;2023-04-03T05:10:34;7.68;;;1.83;;
49412;SDS011;35493;50.276;9.372;2023-04-03T05:13:01;5.18;;;1.50;;
49412;SDS011;35493;50.276;9.372;2023-04-03T05:15:28;4.95;;;1.58;;
49412;SDS011;35493;50.276;9.372;2023-04-03T05:17:57;4.63;;;1.60;;
49412;SDS011;35493;50.276;9.372;2023-04-03T05:20:24;6.22;;;1.95;;
49412;SDS011;35493;50.276;9.372;2023-04-03T05:22:51;3.92;;;1.83;;
49412;SDS011;35493;50.276;9.372;2023-04-03T05:25:18;4.40;;;1.65;;
49412;SDS011;35493;50.276;9.372;2023-04-03T05:27:45;4.30;;;1.38;;
49412;SDS011;35493;50.276;9.372;2023-04-03T05:30:12;8.10;;;1.85;;
49412;SDS011;35493;50.276;9.372;2023-04-03T05:32:40;4.68;;;1.67;;
49412;SDS011;35493;50.276;9.372;2023-04-03T05:35:31;5.40;;;1.75;;
49412;SDS011;35493;50.276;9.372;2023-04-03T05:38:01;4.82;;;1.38;;
49412;SDS011;35493;50.276;9.372;2023-04-03T05:40:30;4.72;;;1.33;;
49412;SDS011;35493;50.276;9.372;2023-04-03T05:42:57;4.22;;;1.40;;
49412;SDS011;35493;50.276;9.372;2023-04-03T05:45:27;6.33;;;2.30;;
49412;SDS011;35493;50.276;9.372;2023-04-03T05:47:55;4.63;;;1.75;;
49412;SDS011;35493;50.276;9.372;2023-04-03T05:50:22;5.55;;;1.73;;
49412;SDS011;35493;50.276;9.372;2023-04-03T05:52:53;4.60;;;1.27;;
49412;SDS011;35493;50.276;9.372;2023-04-03T05:55:25;4.32;;;1.70;;
49412;SDS011;35493;50.276;9.372;2023-04-03T05:57:53;4.75;;;1.63;;
49412;SDS011;35493;50.276;9.372;2023-04-03T06:00:20;4.22;;;1.70;;
49412;SDS011;35493;50.276;9.372;2023-04-03T06:02:56;5.65;;;1.65;;
49412;SDS011;35493;50.276;9.372;2023-04-03T06:05:24;4.78;;;1.80;;
49412;SDS011;35493;50.276;9.372;2023-04-03T06:07:52;5.93;;;1.83;;
49412;SDS011;35493;50.276;9.372;2023-04-03T06:10:19;6.63;;;1.85;;
49412;SDS011;35493;50.276;9.372;2023-04-03T06:12:47;7.22;;;2.25;;
49412;SDS011;35493;50.276;9.372;2023-04-03T06:15:14;5.05;;;1.88;;
49412;SDS011;35493;50.276;9.372;2023-04-03T06:17:42;7.25;;;1.85;;
49412;SDS011;35493;50.276;9.372;2023-04-03T06:20:10;6.32;;;2.17;;
49412;SDS011;35493;50.276;9.372;2023-04-03T06:22:38;7.28;;;1.92;;
49412;SDS011;35493;50.276;9.372;2023-04-03T06:25:07;6.10;;;1.50;;
49412;SDS011;35493;50.276;9.372;2023-04-03T06:27:35;6.38;;;2.10;;
49412;SDS011;35493;50.276;9.372;2023-04-03T06:30:02;6.75;;;1.92;;
49412;SDS011;35493;50.276;9.372;2023-04-03T06:32:29;5.03;;;1.58;;
49412;SDS011;35493;50.276;9.372;2023-04-03T06:34:56;4.07;;;1.65;;
49412;SDS011;35493;50.276;9.372;2023-04-03T06:37:23;5.28;;;1.50;;
49412;SDS011;35493;50.276;9.372;2023-04-03T06:39:53;5.43;;;1.90;;
49412;SDS011;35493;50.276;9.372;2023-04-03T06:42:21;5.05;;;1.73;;
49412;SDS011;35493;50.276;9.372;2023-04-03T06:44:58;5.68;;;1.98;;
49412;SDS011;35493;50.276;9.372;2023-04-03T06:47:25;3.90;;;1.92;;
49412;SDS011;35493;50.276;9.372;2023-04-03T06:49:52;3.97;;;1.63;;
49412;SDS011;35493;50.276;9.372;2023-04-03T06:52:19;7.82;;;1.92;;
49412;SDS011;35493;50.276;9.372;2023-04-03T06:54:46;6.60;;;1.95;;
49412;SDS011;35493;50.276;9.372;2023-04-03T06:57:13;4.18;;;1.63;;
49412;SDS011;35493;50.276;9.372;2023-04-03T06:59:42;5.28;;;1.60;;
49412;SDS011;35493;50.276;9.372;2023-04-03T07:02:09;5.03;;;1.80;;
49412;SDS011;35493;50.276;9.372;2023-04-03T07:04:38;4.50;;;1.45;;
49412;SDS011;35493;50.276;9.372;2023-04-03T07:07:05;3.58;;;1.42;;
49412;SDS011;35493;50.276;9.372;2023-04-03T07:09:32;5.13;;;1.90;;
49412;SDS011;35493;50.276;9.372;2023-04-03T07:11:59;5.18;;;1.52;;
49412;SDS011;35493;50.276;9.372;2023-04-03T07:14:26;5.40;;;1.85;;
49412;SDS011;35493;50.276;9.372;2023-04-03T07:16:55;3.85;;;1.40;;
49412;SDS011;35493;50.276;9.372;2023-04-03T07:19:22;5.50;;;1.60;;
49412;SDS011;35493;50.276;9.372;2023-04-03T07:24:19;4.45;;;1.60;;
49412;SDS011;35493;50.276;9.372;2023-04-03T07:26:48;4.13;;;1.63;;
49412;SDS011;35493;50.276;9.372;2023-04-03T07:29:16;3.60;;;1.42;;
49412;SDS011;35493;50.276;9.372;2023-04-03T07:31:43;3.67;;;1.40;;
49412;SDS011;35493;50.276;9.372;2023-04-03T07:34:12;4.57;;;1.60;;
49412;SDS011;35493;50.276;9.372;2023-04-03T07:36:39;6.10;;;1.92;;
49412;SDS011;35493;50.276;9.372;2023-04-03T07:39:06;4.90;;;1.58;;
49412;SDS011;35493;50.276;9.372;2023-04-03T07:41:33;6.72;;;1.73;;
49412;SDS011;35493;50.276;9.372;2023-04-03T07:44:00;5.05;;;1.95;;
49412;SDS011;35493;50.276;9.372;2023-04-03T07:46:27;4.53;;;1.83;;
49412;SDS011;35493;50.276;9.372;2023-04-03T07:48:54;6.97;;;1.85;;
49412;SDS011;35493;50.276;9.372;2023-04-03T07:51:23;5.32;;;1.50;;
49412;SDS011;35493;50.276;9.372;2023-04-03T07:53:51;3.25;;;1.52;;
49412;SDS011;35493;50.276;9.372;2023-04-03T07:56:18;4.10;;;1.50;;
49412;SDS011;35493;50.276;9.372;2023-04-03T07:58:45;5.28;;;1.60;;
49412;SDS011;35493;50.276;9.372;2023-04-03T08:01:12;5.93;;;1.75;;
49412;SDS011;35493;50.276;9.372;2023-04-03T08:03:39;3.13;;;1.23;;
49412;SDS011;35493;50.276;9.372;2023-04-03T08:06:07;4.40;;;1.80;;
49412;SDS011;35493;50.276;9.372;2023-04-03T08:08:36;5.60;;;1.83;;
49412;SDS011;35493;50.276;9.372;2023-04-03T08:11:03;4.32;;;1.65;;
49412;SDS011;35493;50.276;9.372;2023-04-03T08:13:31;4.25;;;1.50;;
49412;SDS011;35493;50.276;9.372;2023-04-03T08:16:06;5.30;;;1.30;;
49412;SDS011;35493;50.276;9.372;2023-04-03T08:18:34;3.95;;;1.48;;
49412;SDS011;35493;50.276;9.372;2023-04-03T08:21:04;6.90;;;1.60;;
49412;SDS011;35493;50.276;9.372;2023-04-03T08:23:32;4.32;;;1.45;;
49412;SDS011;35493;50.276;9.372;2023-04-03T08:26:04;6.45;;;1.67;;
49412;SDS011;35493;50.276;9.372;2023-04-03T08:28:32;4.85;;;1.73;;
49412;SDS011;35493;50.276;9.372;2023-04-03T08:31:02;5.93;;;1.75;;
49412;SDS011;35493;50.276;9.372;2023-04-03T08:33:30;5.68;;;1.67;;
49412;SDS011;35493;50.276;9.372;2023-04-03T08:35:57;4.95;;;1.40;;
49412;SDS011;35493;50.276;9.372;2023-04-03T08:38:24;4.65;;;1.27;;
49412;SDS011;35493;50.276;9.372;2023-04-03T08:41:00;6.00;;;1.67;;
49412;SDS011;35493;50.276;9.372;2023-04-03T08:43:39;4.68;;;1.55;;
49412;SDS011;35493;50.276;9.372;2023-04-03T08:46:15;4.32;;;1.50;;
49412;SDS011;35493;50.276;9.372;2023-04-03T08:48:45;5.53;;;1.70;;
49412;SDS011;35493;50.276;9.372;2023-04-03T08:51:14;4.53;;;1.83;;
49412;SDS011;35493;50.276;9.372;2023-04-03T08:53:43;3.80;;;1.70;;
49412;SDS011;35493;50.276;9.372;2023-04-03T08:56:18;5.68;;;1.63;;
49412;SDS011;35493;50.276;9.372;2023-04-03T09:01:19;3.92;;;1.40;;
49412;SDS011;35493;50.276;9.372;2023-04-03T09:03:50;4.97;;;1.70;;
49412;SDS011;35493;50.276;9.372;2023-04-03T09:06:18;4.18;;;1.60;;
49412;SDS011;35493;50.276;9.372;2023-04-03T09:08:49;6.35;;;1.52;;
49412;SDS011;35493;50.276;9.372;2023-04-03T09:11:39;5.50;;;1.65;;
49412;SDS011;35493;50.276;9.372;2023-04-03T09:14:13;4.28;;;1.70;;
49412;SDS011;35493;50.276;9.372;2023-04-03T09:16:49;5.95;;;1.75;;
49412;SDS011;35493;50.276;9.372;2023-04-03T09:19:21;4.25;;;1.58;;
49412;SDS011;35493;50.276;9.372;2023-04-03T09:21:59;3.13;;;1.30;;
49412;SDS011;35493;50.276;9.372;2023-04-03T09:24:28;3.27;;;1.50;;
49412;SDS011;35493;50.276;9.372;2023-04-03T09:26:59;4.18;;;1.75;;
49412;SDS011;35493;50.276;9.372;2023-04-03T09:29:38;6.20;;;1.50;;
49412;SDS011;35493;50.276;9.372;2023-04-03T09:32:15;4.00;;;1.40;;
49412;SDS011;35493;50.276;9.372;2023-04-03T09:34:47;4.78;;;1.60;;
49412;SDS011;35493;50.276;9.372;2023-04-03T09:37:33;3.65;;;1.58;;
49412;SDS011;35493;50.276;9.372;2023-04-03T09:40:02;3.28;;;1.60;;
49412;SDS011;35493;50.276;9.372;2023-04-03T09:42:32;4.75;;;1.90;;
49412;SDS011;35493;50.276;9.372;2023-04-03T09:44:59;5.10;;;1.58;;
49412;SDS011;35493;50.276;9.372;2023-04-03T09:47:29;4.53;;;1.30;;
49412;SDS011;35493;50.276;9.372;2023-04-03T09:50:17;5.53;;;1.70;;
49412;SDS011;35493;50.276;9.372;2023-04-03T09:52:46;2.42;;;1.10;;
49412;SDS011;35493;50.276;9.372;2023-04-03T09:55:15;3.40;;;1.50;;
49412;SDS011;35493;50.276;9.372;2023-04-03T09:57:45;4.80;;;1.50;;
49412;SDS011;35493;50.276;9.372;2023-04-03T10:02:48;3.05;;;1.40;;
49412;SDS011;35493;50.276;9.372;2023-04-03T10:05:27;2.85;;;1.40;;
49412;SDS011;35493;50.276;9.372;2023-04-03T10:08:06;3.50;;;1.40;;
49412;SDS011;35493;50.276;9.372;2023-04-03T10:10:36;2.55;;;1.25;;
49412;SDS011;35493;50.276;9.372;2023-04-03T10:13:06;3.53;;;1.23;;
49412;SDS011;35493;50.276;9.372;2023-04-03T10:15:38;2.38;;;1.20;;
49412;SDS011;35493;50.276;9.372;2023-04-03T10:18:14;4.88;;;1.20;;
49412;SDS011;35493;50.276;9.372;2023-04-03T10:20:53;4.40;;;1.20;;
49412;SDS011;35493;50.276;9.372;2023-04-03T10:23:27;2.83;;;1.20;;
49412;SDS011;35493;50.276;9.372;2023-04-03T10:26:01;2.45;;;1.17;;
49412;SDS011;35493;50.276;9.372;2023-04-03T10:28:40;2.70;;;1.10;;
49412;SDS011;35493;50.276;9.372;2023-04-03T10:31:13;3.47;;;1.13;;
49412;SDS011;35493;50.276;9.372;2023-04-03T10:33:53;3.40;;;1.33;;
49412;SDS011;35493;50.276;9.372;2023-04-03T10:36:31;3.97;;;1.20;;
49412;SDS011;35493;50.276;9.372;2023-04-03T10:39:08;4.25;;;1.23;;
49412;SDS011;35493;50.276;9.372;2023-04-03T10:41:51;3.38;;;1.20;;
49412;SDS011;35493;50.276;9.372;2023-04-03T10:44:29;3.83;;;1.20;;
49412;SDS011;35493;50.276;9.372;2023-04-03T10:47:04;3.50;;;1.27;;
49412;SDS011;35493;50.276;9.372;2023-04-03T10:49:42;3.38;;;1.13;;
49412;SDS011;35493;50.276;9.372;2023-04-03T10:52:17;3.38;;;1.15;;
49412;SDS011;35493;50.276;9.372;2023-04-03T10:54:53;2.38;;;1.10;;
49412;SDS011;35493;50.276;9.372;2023-04-03T10:57:25;4.68;;;1.42;;
49412;SDS011;35493;50.276;9.372;2023-04-03T10:59:56;4.03;;;1.30;;
49412;SDS011;35493;50.276;9.372;2023-04-03T11:02:28;1.85;;;1.00;;
49412;SDS011;35493;50.276;9.372;2023-04-03T11:04:59;3.20;;;1.30;;
49412;SDS011;35493;50.276;9.372;2023-04-03T11:07:28;3.60;;;1.27;;
49412;SDS011;35493;50.276;9.372;2023-04-03T11:10:00;5.53;;;1.33;;
49412;SDS011;35493;50.276;9.372;2023-04-03T11:12:33;3.28;;;1.00;;
49412;SDS011;35493;50.276;9.372;2023-04-03T11:15:11;3.55;;;1.35;;
49412;SDS011;35493;50.276;9.372;2023-04-03T11:17:39;4.30;;;1.77;;
49412;SDS011;35493;50.276;9.372;2023-04-03T11:20:14;4.47;;;1.15;;
49412;SDS011;35493;50.276;9.372;2023-04-03T11:22:47;5.43;;;1.40;;
49412;SDS011;35493;50.276;9.372;2023-04-03T11:25:18;3.40;;;1.20;;
49412;SDS011;35493;50.276;9.372;2023-04-03T11:27:49;3.53;;;0.93;;
49412;SDS011;35493;50.276;9.372;2023-04-03T11:30:23;1.67;;;0.88;;
49412;SDS011;35493;50.276;9.372;2023-04-03T11:32:58;2.38;;;1.00;;
49412;SDS011;35493;50.276;9.372;2023-04-03T11:35:48;2.83;;;1.17;;
49412;SDS011;35493;50.276;9.372;2023-04-03T11:40:48;4.20;;;1.10;;
49412;SDS011;35493;50.276;9.372;2023-04-03T11:43:23;3.03;;;1.10;;
49412;SDS011;35493;50.276;9.372;2023-04-03T11:45:57;3.75;;;1.30;;
49412;SDS011;35493;50.276;9.372;2023-04-03T11:48:42;4.07;;;1.55;;
49412;SDS011;35493;50.276;9.372;2023-04-03T12:12:43;7.55;;;2.10;;
49412;SDS011;35493;50.276;9.372;2023-04-03T12:24:38;4.53;;;2.42;;
49412;SDS011;35493;50.276;9.372;2023-04-03T12:27:21;5.07;;;2.20;;
49412;SDS011;35493;50.276;9.372;2023-04-03T12:29:51;6.32;;;2.30;;
49412;SDS011;35493;50.276;9.372;2023-04-03T12:32:26;6.75;;;2.40;;
49412;SDS011;35493;50.276;9.372;2023-04-03T12:35:07;4.80;;;2.10;;
49412;SDS011;35493;50.276;9.372;2023-04-03T12:37:43;4.68;;;2.30;;
49412;SDS011;35493;50.276;9.372;2023-04-03T12:40:21;3.08;;;1.60;;
49412;SDS011;35493;50.276;9.372;2023-04-03T12:45:50;4.53;;;1.58;;
49412;SDS011;35493;50.276;9.372;2023-04-03T12:48:24;4.18;;;1.73;;
49412;SDS011;35493;50.276;9.372;2023-04-03T12:50:54;4.30;;;1.80;;
49412;SDS011;35493;50.276;9.372;2023-04-03T12:55:53;3.75;;;1.70;;
49412;SDS011;35493;50.276;9.372;2023-04-03T12:58:21;4.55;;;1.80;;
49412;SDS011;35493;50.276;9.372;2023-04-03T13:00:58;4.38;;;1.25;;
49412;SDS011;35493;50.276;9.372;2023-04-03T13:03:27;2.30;;;0.77;;
49412;SDS011;35493;50.276;9.372;2023-04-03T13:05:57;3.10;;;1.00;;
49412;SDS011;35493;50.276;9.372;2023-04-03T13:08:27;4.82;;;1.15;;
49412;SDS011;35493;50.276;9.372;2023-04-03T13:10:55;1.85;;;0.80;;
49412;SDS011;35493;50.276;9.372;2023-04-03T13:13:25;3.85;;;0.95;;
49412;SDS011;35493;50.276;9.372;2023-04-03T13:15:53;2.53;;;0.90;;
49412;SDS011;35493;50.276;9.372;2023-04-03T13:18:21;1.65;;;0.63;;
49412;SDS011;35493;50.276;9.372;2023-04-03T13:20:51;3.35;;;0.95;;
49412;SDS011;35493;50.276;9.372;2023-04-03T13:23:21;2.00;;;0.57;;
49412;SDS011;35493;50.276;9.372;2023-04-03T13:25:48;1.70;;;0.70;;
49412;SDS011;35493;50.276;9.372;2023-04-03T13:28:18;2.70;;;0.70;;
49412;SDS011;35493;50.276;9.372;2023-04-03T13:30:55;2.42;;;0.57;;
49412;SDS011;35493;50.276;9.372;2023-04-03T13:33:27;1.25;;;0.45;;
49412;SDS011;35493;50.276;9.372;2023-04-03T13:35:58;2.70;;;0.70;;
49412;SDS011;35493;50.276;9.372;2023-04-03T13:38:31;3.47;;;1.00;;
49412;SDS011;35493;50.276;9.372;2023-04-03T13:40:59;1.98;;;0.75;;
49412;SDS011;35493;50.276;9.372;2023-04-03T13:43:30;3.40;;;0.60;;
49412;SDS011;35493;50.276;9.372;2023-04-03T13:46:00;3.17;;;0.70;;
49412;SDS011;35493;50.276;9.372;2023-04-03T13:48:36;3.63;;;0.93;;
49412;SDS011;35493;50.276;9.372;2023-04-03T13:51:05;2.15;;;0.90;;
49412;SDS011;35493;50.276;9.372;2023-04-03T13:53:44;2.35;;;0.70;;
49412;SDS011;35493;50.276;9.372;2023-04-03T13:56:17;2.40;;;0.80;;
49412;SDS011;35493;50.276;9.372;2023-04-03T13:58:54;3.42;;;0.70;;
49412;SDS011;35493;50.276;9.372;2023-04-03T14:01:24;2.25;;;0.75;;
49412;SDS011;35493;50.276;9.372;2023-04-03T14:03:53;1.40;;;0.60;;
49412;SDS011;35493;50.276;9.372;2023-04-03T14:06:22;5.80;;;0.80;;
49412;SDS011;35493;50.276;9.372;2023-04-03T14:08:51;3.45;;;0.90;;
49412;SDS011;35493;50.276;9.372;2023-04-03T14:11:18;4.50;;;0.70;;
49412;SDS011;35493;50.276;9.372;2023-04-03T14:13:47;3.17;;;0.80;;
49412;SDS011;35493;50.276;9.372;2023-04-03T14:16:16;3.60;;;0.60;;
